• Join FlightAware (Why Join?)
  • Login
  • US Flag 
12:21PM EDT


 

Airport Tracker/Info


-or-


 

Live Flight TrackerFlight Track Log ✈ ASQ5432 ✈ 01-Jul-2014 ✈ KRDU - KLGA

Flight Track Log - Related Links

Times and Time Zones

All times are in EDT time to prevent confusion due to time zone crossing. See the ASQ5432 flight status page for this flight to view local times or setup timezone preferences in your user account.

Time Position Orientation Groundspeed Altitude Reporting Facility
EDT Latitude Longitude Course Direction KTS MPH feet Rate Location/Type
01:09PM 35.8667 -78.8114 263° West 179 206 1,400  Level Washington Center
01:10PM 35.8606 -78.8750 263° West 203 234 5,000 2,280 Climbing Washington Center
01:12PM 35.9436 -78.8169 30° Northeast 258 297 8,100 2,100 Climbing Washington Center
01:13PM 36.0039 -78.7500 42° Northeast 269 310 10,600 2,040 Climbing Washington Center
01:14PM 36.0725 -78.6783 40° Northeast 294 338 12,200 1,680 Climbing Washington Center
01:15PM 36.1500 -78.5861 44° Northeast 330 380 14,100 1,740 Climbing Washington Center
01:16PM 36.2269 -78.5042 41° Northeast 350 403 15,700 1,620 Climbing Washington Center
01:17PM 36.3042 -78.4167 42° Northeast 364 419 17,300 1,380 Climbing Washington Center
01:18PM 36.3811 -78.3422 38° Northeast 374 430 18,600 1,320 Climbing Washington Center
01:19PM 36.4647 -78.2494 42° Northeast 385 443 20,000 1,440 Climbing Washington Center
01:20PM 36.5542 -78.1569 40° Northeast 402 463 21,500 1,440 Climbing Washington Center
01:21PM 36.6522 -78.0617 38° Northeast 407 468 22,900 1,020 Climbing Washington Center
01:22PM 36.7522 -77.9717 36° Northeast 419 482 23,600 720 Climbing Washington Center
01:23PM 36.8417 -77.8681 43° Northeast 430 495 24,400 660 Climbing Washington Center
01:24PM 36.9233 -77.7431 51° Northeast 443 510 25,000 660 Climbing Washington Center
01:25PM 37.0069 -77.6153 51° Northeast 456 525 25,800 840 Climbing Washington Center
01:26PM 37.0861 -77.4900 52° Northeast 462 532 26,800 1,140 Climbing Washington Center
01:27PM 37.1672 -77.3667 50° Northeast 462 532 28,100 1,380 Climbing Washington Center
01:28PM 37.2461 -77.2433 51° Northeast 462 532 29,600 1,140 Climbing Washington Center
01:29PM 37.3186 -77.1353 50° Northeast 455 524 30,500 900 Climbing Washington Center
01:30PM 37.4219 -77.0511 33° Northeast 437 503 31,500 1,020 Climbing Washington Center
01:31PM 37.5439 -76.9592 31° Northeast 447 514 32,600 720 Climbing Washington Center
01:32PM 37.6511 -76.8769 31° Northeast 452 520 33,000 180 Climbing Washington Center
01:33PM 37.7625 -76.7950 30° Northeast 452 520 33,000  Level Washington Center
01:34PM 37.8803 -76.7047 31° Northeast 467 537 33,000  Level Washington Center
01:35PM 37.9958 -76.6194 30° Northeast 467 537 33,000 -120 Level Washington Center
01:36PM 38.1111 -76.5311 31° Northeast 472 543 32,800 -540 Descending Washington Center
01:36PM 38.2286 -76.4428 31° Northeast 477 549 32,000 -720 Descending Washington Center
01:38PM 38.3292 -76.3619 32° Northeast 482 555 31,400 -720 Descending Washington Center
01:39PM 38.4403 -76.2597 36° Northeast 476 548 30,600 -840 Descending Washington Center
01:40PM 38.5597 -76.1467 36° Northeast 476 548 29,700 -960 Descending Washington Center
01:41PM 38.6686 -76.0464 36° Northeast 481 554 28,800 -840 Descending Washington Center
01:42PM 38.7794 -75.9511 34° Northeast 481 554 28,100 -720 Descending Washington Center
01:43PM 38.8839 -75.8475 38° Northeast 476 548 27,400 -600 Descending Washington Center
01:44PM 38.9883 -75.7492 36° Northeast 476 548 26,900 -240 Descending Washington Center
01:45PM 39.0925 -75.6503 36° Northeast 470 541 27,000  Climbing Washington Center
01:46PM 39.1967 -75.5486 37° Northeast 470 541 27,000 -60 Level Washington Center
01:47PM 39.3031 -75.4522 35° Northeast 464 534 26,900 -60 Descending Washington Center
01:48PM 39.4111 -75.3578 34° Northeast 469 540 26,900 -900 Level Washington Center
01:49PM 39.5192 -75.2606 35° Northeast 474 545 25,100 -2,340 Descending Washington Center
01:50PM 39.6272 -75.1606 35° Northeast 474 545 22,300 -2,820 Descending Washington Center
01:51PM 39.7208 -75.0736 36° Northeast 467 537 19,600 -2,640 Descending Washington Center
01:52PM 39.8328 -74.9808 32° Northeast 450 518 17,000 -2,220 Descending Washington Center
01:53PM 39.9117 -74.9097 35° Northeast 428 493 15,200 -2,160 Descending Washington Center
01:54PM 40.0167 -74.7667 46° Northeast 415 478 12,600 -2,400 Descending New York TRACON
01:55PM 40.0833 -74.6667 49° Northeast 404 465 10,200 -1,680 Descending New York TRACON
01:56PM 40.1500 -74.5667 49° Northeast 309 356 9,300 -1,080 Descending New York TRACON
01:57PM 40.2000 -74.4833 52° Northeast 303 349 8,100 -660 Descending New York TRACON
01:58PM 40.2667 -74.4167 37° Northeast 304 350 8,100  Level New York TRACON
01:59PM 40.3167 -74.3500 45° Northeast 311 358 8,100  Level New York TRACON
02:00PM 40.3833 -74.2667 44° Northeast 309 356 8,100  Level New York TRACON
02:01PM 40.4500 -74.1833 44° Northeast 286 329 8,100 -840 Level New York TRACON
02:02PM 40.5000 -74.1333 37° Northeast 254 292 6,500 -1,680 Descending New York TRACON
02:03PM 40.5667 -74.1000 21° North 249 287 4,800 -1,200 Descending New York TRACON
02:04PM 40.6333 -74.0667 21° North 228 262 4,100 -360 Descending New York TRACON
02:05PM 40.6833 -74.0333 27° Northeast 217 250 4,100  Level New York TRACON
02:06PM 40.7333 -74.0167 14° North 214 246 4,100  Level New York TRACON
02:07PM 40.8000 -73.9833 21° North 227 261 4,100  Level New York TRACON
02:08PM 40.8500 -73.9500 27° Northeast 215 247 4,100  Level New York TRACON
02:09PM 40.9000 -73.9167 27° Northeast 212 244 4,100  Level New York TRACON
02:10PM 40.9500 -73.8833 27° Northeast 221 254 4,100 -120 Level New York TRACON
02:11PM 40.9833 -73.8167 56° Northeast 232 267 3,900 -480 Descending New York TRACON
02:12PM 40.9500 -73.7667 131° Southeast 193 222 3,100 -600 Descending New York TRACON
02:13PM 40.9000 -73.7833 194° South 177 204 2,800 -600 Descending New York TRACON
02:14PM 40.8667 -73.8000 201° Southwest 138 159 1,900 -840 Descending New York TRACON
02:15PM 40.8333 -73.8333 217° Southwest 134 154 1,200 -660 Descending New York TRACON
02:16PM 40.8000 -73.8500 201° Southwest 134 154 600 -600 Descending New York TRACON